Time;durP1;ratioP1;P1;durP2;ratioP2;P2;SDS_P1;SDS_P2;PMS_P1;PMS_P2;Temp;Humidity;BMP_temperature;BMP_pressure;BME280_temperature;BME280_humidity;BME280_pressure;Samples;Min_cycle;Max_cycle;Signal;HPM_P1;HPM_P2
2022/10/28 00:01:24;;;;;;;10.13;5.47;;;18.20;99.90;;;;;;5013916;28;20402;-69
2022/10/28 00:03:59;;;;;;;10.83;5.27;;;18.20;99.90;;;;;;5020011;28;20468;-68
2022/10/28 00:06:29;;;;;;;11.80;5.00;;;18.20;99.90;;;;;;5004334;28;20424;-69
2022/10/28 00:08:55;;;;;;;9.00;5.53;;;18.20;99.90;;;;;;5015425;28;20441;-69
2022/10/28 00:11:29;;;;;;;9.33;5.10;;;18.20;99.90;;;;;;4999189;28;20501;-68
2022/10/28 00:14:04;;;;;;;8.03;5.17;;;18.30;99.90;;;;;;5016137;28;20495;-68
2022/10/28 00:16:33;;;;;;;7.53;5.47;;;18.20;99.90;;;;;;5018391;28;20411;-69
2022/10/28 00:19:03;;;;;;;10.00;5.30;;;18.20;99.90;;;;;;5021311;28;20455;-69
2022/10/28 00:21:36;;;;;;;7.20;5.00;;;18.20;99.90;;;;;;4979992;28;20427;-68
2022/10/28 00:24:05;;;;;;;12.87;6.20;;;18.30;99.90;;;;;;5008073;28;20445;-69
2022/10/28 00:26:35;;;;;;;6.97;6.17;;;18.20;99.90;;;;;;5031661;28;20430;-69
2022/10/28 00:29:06;;;;;;;8.27;5.10;;;18.20;99.90;;;;;;5013683;28;20454;-69
2022/10/28 00:31:36;;;;;;;6.00;5.03;;;18.20;99.90;;;;;;5015503;28;20442;-69
2022/10/28 00:34:05;;;;;;;6.83;5.07;;;18.20;99.90;;;;;;4989199;28;20474;-69
2022/10/28 00:36:34;;;;;;;7.37;4.40;;;18.20;99.90;;;;;;5031100;28;20414;-69
2022/10/28 00:39:02;;;;;;;7.20;4.60;;;18.20;99.90;;;;;;5026422;28;20586;-69
2022/10/28 00:41:35;;;;;;;8.50;5.70;;;18.20;99.90;;;;;;4995877;28;20422;-69
2022/10/28 00:44:39;;;;;;;10.17;5.40;;;18.20;99.90;;;;;;5014180;28;20545;-69
2022/10/28 00:47:13;;;;;;;12.40;5.40;;;18.20;99.90;;;;;;5011929;28;21218;-69
2022/10/28 00:49:41;;;;;;;5.60;4.60;;;18.20;99.90;;;;;;5015602;28;20488;-69
2022/10/28 00:52:17;;;;;;;8.50;5.47;;;18.20;99.90;;;;;;5011705;28;20442;-69
2022/10/28 00:54:44;;;;;;;9.33;5.10;;;18.20;99.90;;;;;;5029371;28;20436;-69
2022/10/28 00:57:21;;;;;;;11.53;5.40;;;18.20;99.90;;;;;;5018824;28;20445;-69
2022/10/28 00:59:53;;;;;;;6.20;4.70;;;18.20;99.90;;;;;;5022906;28;20409;-69
2022/10/28 01:02:20;;;;;;;6.80;5.00;;;18.20;99.90;;;;;;4992561;28;20446;-69
2022/10/28 01:04:47;;;;;;;8.40;4.80;;;18.20;99.90;;;;;;4995609;28;20529;-69
2022/10/28 01:07:14;;;;;;;8.23;4.73;;;18.20;99.90;;;;;;5014272;28;20417;-69
2022/10/28 01:09:40;;;;;;;8.23;5.30;;;18.20;99.90;;;;;;5029988;28;20742;-69
2022/10/28 01:12:34;;;;;;;5.63;4.20;;;18.20;99.90;;;;;;5012632;28;20466;-69
2022/10/28 01:15:17;;;;;;;8.03;4.60;;;18.20;99.90;;;;;;4996579;28;20438;-69
2022/10/28 01:18:12;;;;;;;7.73;5.00;;;18.20;99.90;;;;;;5012517;28;20431;-69
2022/10/28 01:20:46;;;;;;;11.77;5.10;;;18.20;99.90;;;;;;5012803;28;20430;-69
2022/10/28 01:23:46;;;;;;;10.63;5.30;;;18.20;99.90;;;;;;4999248;28;20444;-69
2022/10/28 01:26:15;;;;;;;6.67;4.30;;;18.20;99.90;;;;;;4976255;28;20448;-69
2022/10/28 01:29:17;;;;;;;6.33;4.67;;;18.20;99.90;;;;;;4995079;28;20451;-69
2022/10/28 01:31:52;;;;;;;5.83;4.60;;;18.20;99.90;;;;;;5010454;28;21131;-69
2022/10/28 01:34:41;;;;;;;9.63;4.90;;;18.20;99.90;;;;;;5015959;28;20422;-69
2022/10/28 01:37:31;;;;;;;7.37;4.47;;;18.20;99.90;;;;;;5030912;28;20418;-69
2022/10/28 01:40:05;;;;;;;9.23;5.23;;;18.20;99.90;;;;;;4994375;28;20414;-69
2022/10/28 01:42:48;;;;;;;9.93;5.30;;;18.20;99.90;;;;;;5012950;28;20915;-69
2022/10/28 01:45:51;;;;;;;8.83;5.90;;;18.20;99.90;;;;;;5020227;28;20959;-69
2022/10/28 01:48:32;;;;;;;10.33;5.27;;;18.20;99.90;;;;;;4959712;28;20531;-69
2022/10/28 01:51:20;;;;;;;10.83;5.30;;;18.20;99.90;;;;;;5029003;28;20433;-69
2022/10/28 01:53:52;;;;;;;9.20;4.83;;;18.20;99.90;;;;;;4997777;28;20403;-69
2022/10/28 01:56:33;;;;;;;9.63;4.50;;;18.20;99.90;;;;;;5019259;28;20421;-69
2022/10/28 01:59:18;;;;;;;7.40;4.53;;;18.20;99.90;;;;;;5013723;28;20857;-69
2022/10/28 02:02:11;;;;;;;8.30;4.70;;;18.20;99.90;;;;;;5013755;28;20541;-69
2022/10/28 02:04:42;;;;;;;9.63;4.90;;;18.20;99.90;;;;;;5019715;28;20770;-69
2022/10/28 02:07:08;;;;;;;6.40;4.80;;;18.20;99.90;;;;;;5014277;28;20410;-69
2022/10/28 02:09:59;;;;;;;8.30;4.77;;;18.20;99.90;;;;;;5017771;28;20415;-69
2022/10/28 02:12:34;;;;;;;12.20;5.47;;;18.20;99.90;;;;;;5011860;28;20818;-69
2022/10/28 02:15:26;;;;;;;8.63;4.97;;;18.20;99.90;;;;;;5011989;28;20451;-69
2022/10/28 02:18:09;;;;;;;10.20;5.00;;;18.20;99.90;;;;;;5006534;28;20488;-69
2022/10/28 02:21:06;;;;;;;7.13;5.10;;;18.20;99.90;;;;;;5017654;28;20413;-69
2022/10/28 02:23:52;;;;;;;8.37;5.37;;;18.20;99.90;;;;;;5025096;28;20445;-69
2022/10/28 02:26:30;;;;;;;8.90;4.30;;;18.20;99.90;;;;;;5035237;28;20913;-69
2022/10/28 02:29:03;;;;;;;8.40;5.03;;;18.20;99.90;;;;;;5016682;28;20446;-69
2022/10/28 02:31:44;;;;;;;8.70;4.63;;;18.20;99.90;;;;;;5015458;28;20509;-69
2022/10/28 02:34:17;;;;;;;7.30;5.33;;;18.20;99.90;;;;;;5023278;28;20421;-69
2022/10/28 02:36:47;;;;;;;7.57;4.87;;;18.20;99.90;;;;;;4999086;28;20438;-69
2022/10/28 02:39:17;;;;;;;12.33;5.33;;;18.20;99.90;;;;;;4981304;28;20542;-69
2022/10/28 02:41:56;;;;;;;7.47;4.80;;;18.20;99.90;;;;;;4998753;28;20418;-69
2022/10/28 02:44:35;;;;;;;11.00;4.83;;;18.20;99.90;;;;;;5025765;28;20513;-69
2022/10/28 02:47:06;;;;;;;8.23;5.53;;;18.20;99.90;;;;;;4984831;28;20434;-69
2022/10/28 02:49:38;;;;;;;7.17;5.00;;;18.20;99.90;;;;;;5017777;28;20422;-69
2022/10/28 02:52:12;;;;;;;9.37;5.23;;;18.20;99.90;;;;;;5033105;28;20450;-69
2022/10/28 02:54:43;;;;;;;7.70;5.03;;;18.20;99.90;;;;;;4987702;28;20958;-69
2022/10/28 02:57:18;;;;;;;7.00;4.90;;;18.20;99.90;;;;;;5029991;28;20777;-69
2022/10/28 02:59:55;;;;;;;9.50;4.90;;;18.20;99.90;;;;;;4997300;28;20418;-69
2022/10/28 03:02:25;;;;;;;7.00;4.43;;;18.20;99.90;;;;;;5019340;28;20441;-69
2022/10/28 03:04:52;;;;;;;6.97;4.73;;;18.20;99.90;;;;;;5021355;28;20423;-69
2022/10/28 03:07:19;;;;;;;7.90;5.13;;;18.20;99.90;;;;;;4998484;28;20453;-69
2022/10/28 03:09:44;;;;;;;9.13;4.83;;;18.20;99.90;;;;;;5006008;28;20474;-69
2022/10/28 03:12:11;;;;;;;9.50;4.97;;;18.20;99.90;;;;;;5016639;28;20454;-69
2022/10/28 03:14:41;;;;;;;6.47;4.90;;;18.20;99.90;;;;;;4988858;28;20439;-69
2022/10/28 03:17:07;;;;;;;9.80;5.23;;;18.20;99.90;;;;;;5012199;28;20423;-69
2022/10/28 03:19:38;;;;;;;11.13;5.07;;;18.20;99.90;;;;;;5013505;28;20433;-69
2022/10/28 03:22:04;;;;;;;10.73;4.73;;;18.20;99.90;;;;;;5033237;28;20433;-69
2022/10/28 03:24:30;;;;;;;9.23;4.20;;;18.20;99.90;;;;;;5034435;28;20426;-69
2022/10/28 03:26:58;;;;;;;8.63;4.77;;;18.20;99.90;;;;;;4997599;28;20563;-69
2022/10/28 03:29:24;;;;;;;8.93;4.80;;;18.20;99.90;;;;;;5002572;28;20489;-69
2022/10/28 03:31:50;;;;;;;9.60;4.30;;;18.20;99.90;;;;;;5017121;28;20928;-69
2022/10/28 03:34:21;;;;;;;6.50;5.17;;;18.20;99.90;;;;;;5002081;28;20516;-69
2022/10/28 03:36:51;;;;;;;9.10;5.10;;;18.20;99.90;;;;;;4997042;28;20481;-69
2022/10/28 03:39:22;;;;;;;7.00;4.93;;;18.20;99.90;;;;;;5023719;28;20524;-69
2022/10/28 03:41:49;;;;;;;8.23;5.50;;;18.20;99.90;;;;;;5012587;28;20460;-69
2022/10/28 03:44:17;;;;;;;6.70;5.00;;;18.20;99.90;;;;;;5014390;28;20438;-69
2022/10/28 03:46:45;;;;;;;8.43;5.43;;;18.20;99.90;;;;;;5016548;28;20796;-69
2022/10/28 03:49:11;;;;;;;7.53;4.80;;;18.20;99.90;;;;;;5027248;28;20959;-69
2022/10/28 03:51:37;;;;;;;9.00;4.73;;;18.20;99.90;;;;;;5014151;28;20469;-69
2022/10/28 03:54:03;;;;;;;12.33;4.70;;;18.20;99.90;;;;;;4992903;28;20517;-69
2022/10/28 03:56:34;;;;;;;11.63;5.40;;;18.20;99.90;;;;;;4981436;28;20170;-69
2022/10/28 03:59:00;;;;;;;9.70;4.83;;;18.20;99.90;;;;;;5015685;28;20872;-69
2022/10/28 04:01:26;;;;;;;11.50;5.50;;;18.20;99.90;;;;;;5016156;28;20414;-69
2022/10/28 04:03:57;;;;;;;8.10;4.80;;;18.20;99.90;;;;;;4999277;28;20775;-69
2022/10/28 04:06:25;;;;;;;8.80;4.60;;;18.10;99.90;;;;;;5023777;28;20520;-69
2022/10/28 04:09:07;;;;;;;11.50;5.70;;;18.10;99.90;;;;;;5018612;28;20890;-69
2022/10/28 04:11:38;;;;;;;8.63;5.30;;;18.10;99.90;;;;;;5007222;28;20552;-69
2022/10/28 04:14:07;;;;;;;9.70;4.50;;;18.10;99.90;;;;;;5030594;28;20417;-69
2022/10/28 04:16:33;;;;;;;10.27;5.60;;;18.10;99.90;;;;;;5014742;28;20426;-69
2022/10/28 04:18:59;;;;;;;6.10;4.87;;;18.10;99.90;;;;;;5023068;28;20500;-68
2022/10/28 04:21:25;;;;;;;7.17;5.20;;;18.20;99.90;;;;;;5033009;28;21056;-70
2022/10/28 04:23:51;;;;;;;7.83;4.80;;;18.10;99.90;;;;;;5013993;28;20418;-69
2022/10/28 04:26:37;;;;;;;9.77;5.90;;;18.10;99.90;;;;;;5017805;28;20443;-70
2022/10/28 04:29:03;;;;;;;8.63;4.80;;;18.10;99.90;;;;;;5007573;28;20843;-70
2022/10/28 04:31:29;;;;;;;6.60;4.87;;;18.10;99.90;;;;;;5015377;28;20171;-71
2022/10/28 04:33:55;;;;;;;9.73;4.87;;;18.10;99.90;;;;;;5027561;28;20491;-70
2022/10/28 04:36:21;;;;;;;7.93;5.30;;;18.10;99.90;;;;;;4997009;28;20635;-70
2022/10/28 04:38:48;;;;;;;9.20;5.10;;;18.10;99.90;;;;;;4997458;28;20466;-70
2022/10/28 04:41:15;;;;;;;11.47;5.00;;;18.10;99.90;;;;;;4994884;28;20248;-70
2022/10/28 04:43:41;;;;;;;7.93;4.60;;;18.10;99.90;;;;;;5009300;28;20462;-70
2022/10/28 04:46:07;;;;;;;9.00;4.60;;;18.20;99.90;;;;;;5023294;28;21014;-70
2022/10/28 04:48:33;;;;;;;5.90;4.50;;;18.10;99.90;;;;;;5013112;28;20975;-70
2022/10/28 04:51:00;;;;;;;9.13;5.07;;;18.10;99.90;;;;;;4996777;28;20419;-71
2022/10/28 04:53:26;;;;;;;7.80;4.30;;;18.10;99.90;;;;;;5010817;28;20458;-70
2022/10/28 04:56:01;;;;;;;8.70;4.53;;;18.10;99.90;;;;;;5013733;28;20454;-70
2022/10/28 04:58:56;;;;;;;6.73;4.30;;;18.10;99.90;;;;;;4927094;28;20835;-70
2022/10/28 05:01:22;;;;;;;5.80;4.20;;;18.10;99.90;;;;;;5013938;28;20417;-70
2022/10/28 05:03:52;;;;;;;7.27;4.47;;;18.10;99.90;;;;;;5005926;28;20433;-70
2022/10/28 05:06:18;;;;;;;8.43;4.73;;;18.10;99.90;;;;;;5010008;28;20466;-70
2022/10/28 05:08:44;;;;;;;7.93;4.60;;;18.10;99.90;;;;;;5047779;28;21022;-70
2022/10/28 05:11:10;;;;;;;11.40;4.60;;;18.10;99.90;;;;;;4982874;28;20446;-70
2022/10/28 05:13:36;;;;;;;7.83;4.60;;;18.10;99.90;;;;;;5027610;28;20450;-70
2022/10/28 05:16:02;;;;;;;8.70;5.20;;;18.10;99.90;;;;;;4963170;28;20180;-70
2022/10/28 05:18:28;;;;;;;9.53;4.30;;;18.10;99.90;;;;;;4995131;28;20459;-70
2022/10/28 05:20:54;;;;;;;10.00;4.47;;;18.10;99.90;;;;;;4995162;28;20819;-71
2022/10/28 05:23:21;;;;;;;10.07;4.40;;;18.10;99.90;;;;;;5015163;28;20585;-71
2022/10/28 05:25:49;;;;;;;9.30;4.40;;;18.10;99.90;;;;;;5013230;28;20214;-72
2022/10/28 05:28:15;;;;;;;12.07;4.90;;;18.10;99.90;;;;;;5013068;28;20446;-71
2022/10/28 05:30:49;;;;;;;11.50;4.70;;;18.10;99.90;;;;;;4993733;28;20450;-71
2022/10/28 05:33:19;;;;;;;13.93;5.20;;;18.10;99.90;;;;;;4995349;28;20451;-71
2022/10/28 05:35:51;;;;;;;6.93;4.37;;;18.10;99.90;;;;;;5016415;28;20435;-71
2022/10/28 05:38:17;;;;;;;6.50;4.27;;;18.10;99.90;;;;;;4995245;28;20468;-71
2022/10/28 05:40:47;;;;;;;10.33;5.50;;;18.10;99.90;;;;;;5017257;28;20430;-70
2022/10/28 05:43:16;;;;;;;6.70;4.07;;;18.10;99.90;;;;;;5013764;28;20438;-71
2022/10/28 05:45:42;;;;;;;9.67;4.47;;;18.10;99.90;;;;;;5007645;28;20442;-71
2022/10/28 05:48:11;;;;;;;7.23;5.10;;;18.10;99.90;;;;;;5012431;28;20821;-72
2022/10/28 05:50:39;;;;;;;9.73;5.30;;;18.10;99.90;;;;;;4998636;28;20435;-72
2022/10/28 05:53:05;;;;;;;11.70;5.47;;;18.10;99.90;;;;;;4998369;28;20472;-72
2022/10/28 05:56:07;;;;;;;7.17;4.57;;;18.10;99.90;;;;;;4939452;29;20491;-68
2022/10/28 05:58:33;;;;;;;8.37;4.30;;;18.10;99.90;;;;;;4948309;28;20450;-69
2022/10/28 06:01:05;;;;;;;9.33;4.90;;;18.00;99.90;;;;;;5018645;28;20453;-69
2022/10/28 06:03:34;;;;;;;12.57;4.67;;;18.10;99.90;;;;;;5016279;28;20807;-68
2022/10/28 06:06:02;;;;;;;7.50;4.70;;;18.10;99.90;;;;;;4991294;28;20803;-68
2022/10/28 06:08:29;;;;;;;5.30;4.43;;;18.10;99.90;;;;;;5001662;28;20450;-69
2022/10/28 06:10:57;;;;;;;5.70;4.40;;;18.10;99.90;;;;;;5017581;28;20434;-69
2022/10/28 06:13:29;;;;;;;8.20;5.20;;;18.10;99.90;;;;;;5015738;28;20966;-69
2022/10/28 06:15:56;;;;;;;7.80;5.43;;;18.10;99.90;;;;;;4996599;28;20430;-69
2022/10/28 06:18:23;;;;;;;7.03;4.83;;;18.10;99.90;;;;;;5034318;28;20454;-69
2022/10/28 06:20:59;;;;;;;14.70;4.47;;;18.10;99.90;;;;;;5018056;28;20445;-68
2022/10/28 06:23:27;;;;;;;11.27;5.57;;;18.10;99.90;;;;;;5015570;28;20437;-69
2022/10/28 06:25:58;;;;;;;11.90;6.30;;;18.10;99.90;;;;;;4985761;28;20461;-69
2022/10/28 06:28:24;;;;;;;6.70;5.43;;;18.10;99.90;;;;;;5003956;28;20458;-69
2022/10/28 06:30:51;;;;;;;7.03;5.53;;;18.00;99.90;;;;;;5032663;28;20422;-69
2022/10/28 06:33:19;;;;;;;11.77;5.00;;;18.00;99.90;;;;;;5031464;28;20447;-68
2022/10/28 06:35:48;;;;;;;11.20;4.80;;;18.00;99.90;;;;;;5021941;28;20422;-69
2022/10/28 06:38:14;;;;;;;9.10;5.03;;;18.00;99.90;;;;;;5031604;28;20465;-69
2022/10/28 06:40:42;;;;;;;12.87;5.53;;;18.00;99.90;;;;;;5004778;28;20482;-69
2022/10/28 06:43:08;;;;;;;8.23;4.97;;;18.10;99.90;;;;;;5017114;28;20467;-69
2022/10/28 06:45:55;;;;;;;6.60;4.63;;;18.00;99.90;;;;;;5003744;28;20989;-68
2022/10/28 06:48:22;;;;;;;11.40;5.47;;;18.10;99.90;;;;;;4993613;28;20544;-71
2022/10/28 06:50:54;;;;;;;7.10;3.87;;;18.00;99.90;;;;;;5024941;28;20480;-72
2022/10/28 06:53:22;;;;;;;7.10;4.43;;;18.00;99.90;;;;;;5013334;28;20461;-74
2022/10/28 06:55:56;;;;;;;10.33;5.43;;;18.00;99.90;;;;;;5002343;28;20517;-72
2022/10/28 06:58:23;;;;;;;7.07;5.10;;;18.00;99.90;;;;;;4987739;28;20985;-72
2022/10/28 07:00:52;;;;;;;10.63;4.33;;;18.10;99.90;;;;;;5015543;28;20906;-72
2022/10/28 07:03:18;;;;;;;6.83;4.57;;;18.00;99.90;;;;;;5015532;28;20530;-71
2022/10/28 07:05:46;;;;;;;8.97;5.10;;;18.10;99.90;;;;;;5012292;28;20425;-69
2022/10/28 07:08:27;;;;;;;8.03;4.90;;;18.10;99.90;;;;;;5032219;28;20498;-71
2022/10/28 07:10:59;;;;;;;12.97;5.30;;;18.00;99.90;;;;;;5019332;28;20923;-69
2022/10/28 07:13:30;;;;;;;5.50;4.50;;;18.10;99.90;;;;;;5008741;28;20561;-73
2022/10/28 07:16:00;;;;;;;5.77;4.43;;;18.00;99.90;;;;;;5007458;28;20421;-72
2022/10/28 07:18:28;;;;;;;6.77;4.60;;;18.00;99.90;;;;;;5015555;28;20472;-72
2022/10/28 07:20:58;;;;;;;9.53;4.90;;;18.00;99.90;;;;;;5013397;28;20903;-72
2022/10/28 07:23:31;;;;;;;10.73;5.53;;;18.10;99.90;;;;;;5015719;28;20813;-71
2022/10/28 07:25:57;;;;;;;14.40;5.57;;;18.00;99.90;;;;;;4989555;28;20444;-72
2022/10/28 07:28:26;;;;;;;9.50;5.30;;;18.10;99.90;;;;;;5013256;28;20513;-71
2022/10/28 07:30:53;;;;;;;8.47;5.03;;;18.00;99.90;;;;;;4998874;28;20801;-71
2022/10/28 07:33:21;;;;;;;15.53;5.83;;;18.10;99.90;;;;;;5033241;28;20462;-71
2022/10/28 07:35:48;;;;;;;9.87;5.00;;;18.10;99.90;;;;;;4999003;28;20438;-71
2022/10/28 07:38:14;;;;;;;9.60;5.53;;;18.00;99.90;;;;;;4999835;28;20465;-72
2022/10/28 07:40:40;;;;;;;11.23;5.60;;;18.00;99.90;;;;;;5009254;28;20537;-71
2022/10/28 07:43:06;;;;;;;11.37;5.60;;;18.00;99.90;;;;;;5030170;28;20529;-72
2022/10/28 07:45:33;;;;;;;10.83;4.60;;;18.00;99.90;;;;;;5012550;28;20456;-71
2022/10/28 07:47:59;;;;;;;8.80;4.70;;;18.00;99.90;;;;;;5032387;28;20536;-71
2022/10/28 07:50:30;;;;;;;6.23;4.73;;;18.10;99.90;;;;;;5033658;28;20419;-71
2022/10/28 07:52:56;;;;;;;8.63;5.13;;;18.10;99.90;;;;;;5031046;28;20466;-72
2022/10/28 07:55:40;;;;;;;8.70;4.87;;;18.10;99.90;;;;;;5015695;28;20417;-73
2022/10/28 07:58:07;;;;;;;10.10;5.30;;;18.10;99.90;;;;;;5013726;28;20431;-74
2022/10/28 08:00:33;;;;;;;6.10;4.53;;;18.00;99.90;;;;;;5001339;28;20430;-72
2022/10/28 08:03:01;;;;;;;11.23;4.90;;;18.10;99.90;;;;;;5028098;28;20445;-72
2022/10/28 08:05:30;;;;;;;9.30;5.20;;;18.10;99.90;;;;;;5015179;28;20424;-72
2022/10/28 08:07:56;;;;;;;11.00;4.87;;;18.10;99.90;;;;;;5025333;28;20445;-73
2022/10/28 08:10:24;;;;;;;8.93;4.90;;;18.10;99.90;;;;;;5028926;28;20435;-74
2022/10/28 08:12:50;;;;;;;10.23;4.90;;;18.10;99.90;;;;;;5007963;28;20595;-73
2022/10/28 08:15:22;;;;;;;7.70;4.70;;;18.10;99.90;;;;;;5015599;28;20410;-73
2022/10/28 08:17:52;;;;;;;9.30;5.90;;;18.10;99.90;;;;;;4999578;28;20829;-74
2022/10/28 08:20:18;;;;;;;10.77;5.20;;;18.10;99.90;;;;;;5011140;28;20449;-71
2022/10/28 08:22:44;;;;;;;7.70;5.10;;;18.10;99.90;;;;;;5020691;28;20434;-74
2022/10/28 08:25:13;;;;;;;12.57;4.90;;;18.10;99.90;;;;;;5013446;28;20525;-73
2022/10/28 08:27:41;;;;;;;9.10;5.20;;;18.10;99.90;;;;;;5025437;28;20480;-73
2022/10/28 08:30:11;;;;;;;6.77;4.97;;;18.10;99.90;;;;;;5001032;28;20441;-73
2022/10/28 08:32:39;;;;;;;9.70;5.10;;;18.20;99.90;;;;;;5012085;28;20536;-73
2022/10/28 08:35:08;;;;;;;9.67;5.10;;;18.20;99.90;;;;;;4979488;28;20441;-74
2022/10/28 08:37:34;;;;;;;12.87;5.13;;;18.20;99.90;;;;;;4997633;28;20437;-73
2022/10/28 08:40:00;;;;;;;7.83;5.03;;;18.10;99.90;;;;;;5032053;28;20820;-74
2022/10/28 08:42:45;;;;;;;9.03;5.43;;;18.10;99.90;;;;;;5010972;28;20525;-74
2022/10/28 08:45:24;;;;;;;8.77;5.00;;;18.10;99.90;;;;;;5026961;28;20479;-74
2022/10/28 08:48:17;;;;;;;10.93;6.33;;;18.10;99.90;;;;;;5025032;28;20563;-73
2022/10/28 08:50:58;;;;;;;11.17;4.80;;;18.20;99.90;;;;;;5017956;28;20478;-74
2022/10/28 08:53:31;;;;;;;6.40;4.90;;;18.20;99.90;;;;;;5012441;28;20476;-74
2022/10/28 08:56:14;;;;;;;9.93;4.90;;;18.20;99.90;;;;;;5004976;28;20523;-74
2022/10/28 08:58:46;;;;;;;6.43;4.80;;;18.20;99.90;;;;;;5024445;28;21034;-73
2022/10/28 09:01:31;;;;;;;9.70;5.37;;;18.20;99.90;;;;;;5013863;28;20497;-73
2022/10/28 09:04:01;;;;;;;11.63;5.23;;;18.20;99.90;;;;;;5013413;28;20437;-73
2022/10/28 09:06:29;;;;;;;12.70;5.60;;;18.20;99.90;;;;;;5003796;28;20434;-73
2022/10/28 09:08:57;;;;;;;10.00;4.70;;;18.20;99.90;;;;;;5011159;28;20996;-74
2022/10/28 09:11:47;;;;;;;9.93;5.63;;;18.30;99.90;;;;;;5011645;28;20433;-74
2022/10/28 09:14:26;;;;;;;9.60;5.37;;;18.20;99.90;;;;;;4954519;28;20497;-72
2022/10/28 09:17:19;;;;;;;5.83;4.03;;;18.30;99.90;;;;;;5023256;28;20414;-72
2022/10/28 09:19:55;;;;;;;8.20;4.57;;;18.30;99.90;;;;;;4981837;28;20481;-78
2022/10/28 09:23:19;;;;;;;10.37;5.10;;;18.30;99.90;;;;;;4956188;28;20577;-76
2022/10/28 09:26:07;;;;;;;13.70;6.10;;;18.30;99.90;;;;;;5024656;28;20542;-75
2022/10/28 09:29:10;;;;;;;11.40;5.67;;;18.40;99.90;;;;;;4994801;28;20557;-76
2022/10/28 09:32:07;;;;;;;11.03;4.80;;;18.50;99.90;;;;;;4976945;28;20466;-76
2022/10/28 09:34:45;;;;;;;13.20;5.70;;;18.60;99.90;;;;;;4983806;28;20436;-76
2022/10/28 09:37:18;;;;;;;11.50;4.80;;;18.60;99.90;;;;;;4947667;28;20452;-78
2022/10/28 09:39:54;;;;;;;9.60;4.90;;;18.60;99.90;;;;;;4957942;28;20438;-77
2022/10/28 09:42:30;;;;;;;7.40;4.80;;;18.60;99.90;;;;;;4990052;28;20440;-75
2022/10/28 09:45:03;;;;;;;13.60;6.27;;;18.60;99.90;;;;;;4973234;28;20513;-77
2022/10/28 09:47:40;;;;;;;10.80;4.67;;;18.70;99.90;;;;;;4974231;28;22308;-77
2022/10/28 09:50:16;;;;;;;8.03;5.17;;;18.70;99.90;;;;;;4985697;28;20435;-75
2022/10/28 09:53:05;;;;;;;8.37;5.40;;;18.70;99.90;;;;;;4977922;28;20836;-75
2022/10/28 09:55:32;;;;;;;11.30;5.00;;;18.70;99.90;;;;;;4998022;28;20445;-74
2022/10/28 09:58:04;;;;;;;10.97;5.27;;;18.60;99.90;;;;;;4988989;28;20528;-76
2022/10/28 10:00:31;;;;;;;10.23;4.20;;;18.70;99.90;;;;;;4961743;28;20455;-82
2022/10/28 10:03:00;;;;;;;11.30;5.53;;;18.70;99.90;;;;;;4958778;28;20449;-78
2022/10/28 10:05:32;;;;;;;14.37;5.00;;;18.70;99.90;;;;;;4955136;28;20453;-76
2022/10/28 10:08:03;;;;;;;11.23;5.70;;;18.70;99.90;;;;;;4970703;28;20969;-76
2022/10/28 10:10:56;;;;;;;13.07;5.93;;;18.70;99.90;;;;;;4960689;28;20440;-76
2022/10/28 10:13:38;;;;;;;14.40;5.50;;;18.70;99.90;;;;;;4971843;28;20556;-76
2022/10/28 10:16:16;;;;;;;11.27;5.20;;;18.70;99.90;;;;;;4971208;28;20437;-76
2022/10/28 10:18:48;;;;;;;9.07;5.20;;;18.70;99.90;;;;;;4971929;28;20828;-76
2022/10/28 10:21:15;;;;;;;11.70;5.00;;;18.70;99.90;;;;;;4967059;28;20973;-76
2022/10/28 10:23:44;;;;;;;9.23;5.70;;;18.70;99.90;;;;;;4968323;28;20797;-76
2022/10/28 10:26:15;;;;;;;7.00;5.50;;;18.70;99.90;;;;;;4968001;28;20480;-76
2022/10/28 10:28:48;;;;;;;9.57;5.00;;;18.70;99.90;;;;;;4965956;28;20585;-76
2022/10/28 10:31:20;;;;;;;8.67;5.10;;;18.70;99.90;;;;;;4972349;28;20528;-74
2022/10/28 10:33:50;;;;;;;10.80;5.30;;;18.80;99.90;;;;;;4951597;29;20466;-73
2022/10/28 10:36:22;;;;;;;9.00;5.30;;;18.80;99.90;;;;;;4987927;28;20497;-74
2022/10/28 10:38:55;;;;;;;8.53;5.50;;;18.80;99.90;;;;;;4980000;28;20447;-74
2022/10/28 10:41:37;;;;;;;11.03;5.20;;;18.80;99.90;;;;;;4965047;28;20445;-74
2022/10/28 10:44:22;;;;;;;10.37;4.90;;;18.80;99.90;;;;;;4959058;28;20471;-74
2022/10/28 10:46:54;;;;;;;8.37;4.77;;;18.80;99.90;;;;;;4991246;28;20421;-74
2022/10/28 10:49:20;;;;;;;8.80;5.53;;;18.80;99.90;;;;;;4965153;28;20984;-74
2022/10/28 10:51:55;;;;;;;7.20;4.53;;;18.80;99.90;;;;;;4980064;28;20445;-74
2022/10/28 10:54:31;;;;;;;6.90;5.20;;;18.90;99.90;;;;;;4979966;28;20449;-74
2022/10/28 10:57:19;;;;;;;8.10;4.63;;;18.90;99.90;;;;;;4975129;28;20436;-74
2022/10/28 10:59:54;;;;;;;16.07;5.70;;;18.90;99.90;;;;;;4992644;28;20502;-74
2022/10/28 11:02:38;;;;;;;14.53;6.10;;;18.90;99.90;;;;;;4974025;28;20447;-74
2022/10/28 11:05:20;;;;;;;7.30;4.50;;;18.90;99.90;;;;;;4988433;28;20488;-74
2022/10/28 11:07:50;;;;;;;9.33;4.50;;;18.90;99.90;;;;;;4988570;28;20878;-74
2022/10/28 11:10:29;;;;;;;10.60;5.30;;;19.00;99.90;;;;;;4993181;28;20425;-74
2022/10/28 11:12:58;;;;;;;8.33;5.90;;;19.00;99.90;;;;;;4991277;28;20452;-74
2022/10/28 11:15:29;;;;;;;9.30;5.07;;;19.00;99.90;;;;;;4974919;28;20438;-74
2022/10/28 11:18:24;;;;;;;8.47;4.70;;;19.00;99.90;;;;;;4992612;28;20539;-74
2022/10/28 11:21:02;;;;;;;10.33;5.43;;;19.00;99.90;;;;;;4967405;28;20502;-74
2022/10/28 11:23:58;;;;;;;7.20;4.83;;;19.00;99.90;;;;;;4981700;28;20510;-74
2022/10/28 11:26:29;;;;;;;10.37;5.30;;;19.10;99.90;;;;;;4959979;28;20472;-75
2022/10/28 11:29:02;;;;;;;7.87;5.40;;;19.10;99.90;;;;;;4988886;28;20468;-74
2022/10/28 11:31:38;;;;;;;10.47;4.93;;;19.10;99.90;;;;;;4989126;28;20508;-74
2022/10/28 11:34:44;;;;;;;7.47;4.87;;;19.10;99.90;;;;;;4972835;28;20533;-71
2022/10/28 11:37:18;;;;;;;10.10;5.70;;;19.10;99.90;;;;;;4975411;28;20421;-73
2022/10/28 11:39:56;;;;;;;5.57;4.10;;;19.10;99.90;;;;;;4974758;28;20449;-72
2022/10/28 11:42:51;;;;;;;7.70;5.27;;;19.10;99.90;;;;;;4955864;28;20414;-74
2022/10/28 11:45:36;;;;;;;9.60;5.70;;;19.10;99.90;;;;;;4986144;28;20559;-74
2022/10/28 11:48:17;;;;;;;8.73;5.33;;;19.20;99.90;;;;;;4974217;28;20456;-76
2022/10/28 11:51:08;;;;;;;11.93;4.70;;;19.20;99.90;;;;;;4975121;28;20552;-72
2022/10/28 11:54:19;;;;;;;14.33;5.70;;;19.20;99.90;;;;;;4988125;28;20522;-72
2022/10/28 11:56:56;;;;;;;7.93;5.10;;;19.20;99.90;;;;;;4983148;28;20464;-73
2022/10/28 11:59:44;;;;;;;10.30;5.13;;;19.20;99.90;;;;;;4981705;28;20463;-73
2022/10/28 12:02:39;;;;;;;6.97;4.87;;;19.30;99.90;;;;;;4987714;28;20997;-73
2022/10/28 12:05:17;;;;;;;9.20;4.80;;;19.30;99.90;;;;;;4974433;28;20464;-73
2022/10/28 12:08:09;;;;;;;11.60;5.53;;;19.30;99.90;;;;;;4975210;28;20448;-73
2022/10/28 12:10:49;;;;;;;8.97;4.63;;;19.30;99.90;;;;;;4990800;28;20428;-73
2022/10/28 12:13:37;;;;;;;7.37;4.80;;;19.30;99.90;;;;;;4978218;28;20489;-72
2022/10/28 12:16:21;;;;;;;11.63;4.90;;;19.30;99.90;;;;;;5001758;28;20468;-73
2022/10/28 12:19:13;;;;;;;11.13;5.97;;;19.40;99.90;;;;;;4965859;28;20536;-73
2022/10/28 12:22:22;;;;;;;11.43;6.27;;;19.40;99.90;;;;;;4976118;28;20448;-73
2022/10/28 12:24:52;;;;;;;9.67;5.20;;;19.40;99.90;;;;;;4974152;28;21451;-73
2022/10/28 12:27:33;;;;;;;11.87;5.30;;;19.40;99.90;;;;;;4970449;28;20442;-72
2022/10/28 12:30:30;;;;;;;11.87;5.63;;;19.40;99.90;;;;;;4972720;28;20461;-73
2022/10/28 12:33:06;;;;;;;11.60;5.43;;;19.50;99.90;;;;;;4968840;28;20942;-73
2022/10/28 12:35:37;;;;;;;8.70;5.80;;;19.50;99.90;;;;;;4975408;28;20467;-73
2022/10/28 12:38:31;;;;;;;8.27;5.07;;;19.40;99.90;;;;;;4973696;28;20460;-73
2022/10/28 12:41:27;;;;;;;10.07;4.90;;;19.50;99.90;;;;;;4958150;28;20442;-73
2022/10/28 12:44:06;;;;;;;8.07;4.97;;;19.50;99.90;;;;;;5002446;28;20477;-73
2022/10/28 12:46:38;;;;;;;7.57;4.63;;;19.50;99.90;;;;;;4981897;28;20543;-73
2022/10/28 12:49:15;;;;;;;9.13;5.33;;;19.50;99.90;;;;;;5000445;28;20453;-73
2022/10/28 12:51:46;;;;;;;9.10;5.00;;;19.50;99.90;;;;;;4979020;28;20625;-73
2022/10/28 12:54:33;;;;;;;11.70;5.10;;;19.60;99.90;;;;;;4969710;28;20423;-73
2022/10/28 12:57:29;;;;;;;8.53;4.73;;;19.50;99.90;;;;;;4971560;28;20564;-73
2022/10/28 13:00:12;;;;;;;12.33;6.10;;;19.60;99.90;;;;;;5002211;28;20587;-73
2022/10/28 13:03:11;;;;;;;9.67;5.47;;;19.60;99.90;;;;;;4982638;28;20871;-73
2022/10/28 13:05:45;;;;;;;8.50;5.43;;;19.60;99.90;;;;;;4977454;28;20963;-73
2022/10/28 13:08:41;;;;;;;13.93;5.33;;;19.60;99.90;;;;;;4976905;28;20476;-73
2022/10/28 13:11:34;;;;;;;10.40;4.77;;;19.60;99.90;;;;;;4988306;28;21023;-73
2022/10/28 13:14:18;;;;;;;12.90;5.80;;;19.70;99.90;;;;;;4975251;28;20440;-73
2022/10/28 13:16:53;;;;;;;7.70;4.97;;;19.70;99.90;;;;;;4997699;28;20435;-72
2022/10/28 13:19:42;;;;;;;7.17;4.57;;;19.70;99.90;;;;;;4974874;28;20951;-73
2022/10/28 13:22:32;;;;;;;12.20;5.67;;;19.70;99.90;;;;;;4994860;28;20973;-73